createdAt,value
2023-08-22T00:01:29.358Z,5.17
2023-08-22T00:03:58.157Z,5.20
2023-08-22T00:06:25.385Z,5.00
2023-08-22T00:08:51.975Z,4.77
2023-08-22T00:11:18.629Z,5.30
2023-08-22T00:13:45.262Z,5.07
2023-08-22T00:16:11.887Z,5.40
2023-08-22T00:18:38.495Z,6.03
2023-08-22T00:21:05.089Z,5.23
2023-08-22T00:23:31.754Z,4.80
2023-08-22T00:25:58.415Z,5.70
2023-08-22T00:28:24.978Z,4.50
2023-08-22T00:30:53.911Z,5.60
2023-08-22T00:33:20.632Z,5.20
2023-08-22T00:35:47.215Z,5.20
2023-08-22T00:38:13.828Z,5.70
2023-08-22T00:40:41.028Z,6.13
2023-08-22T00:43:07.576Z,4.80
2023-08-22T00:45:34.433Z,4.77
2023-08-22T00:48:01.131Z,5.77
2023-08-22T00:50:27.744Z,5.60
2023-08-22T00:52:54.621Z,5.53
2023-08-22T00:55:21.255Z,5.43
2023-08-22T00:57:47.829Z,5.50
2023-08-22T01:00:14.467Z,5.80
2023-08-22T01:02:41.284Z,5.53
2023-08-22T01:05:08.669Z,6.13
2023-08-22T01:07:58.411Z,5.80
2023-08-22T01:10:34.940Z,6.43
2023-08-22T01:13:09.808Z,5.50
2023-08-22T01:15:37.375Z,5.10
2023-08-22T01:18:05.121Z,5.70
2023-08-22T01:20:31.804Z,5.40
2023-08-22T01:22:58.791Z,4.90
2023-08-22T01:25:26.788Z,6.07
2023-08-22T01:28:31.893Z,5.70
2023-08-22T01:31:13.054Z,4.90
2023-08-22T01:33:54.444Z,5.30
2023-08-22T01:36:21.704Z,5.63
2023-08-22T01:38:49.940Z,5.20
2023-08-22T01:41:17.208Z,5.43
2023-08-22T01:43:44.349Z,5.67
2023-08-22T01:46:10.988Z,5.47
2023-08-22T01:48:37.725Z,5.47
2023-08-22T01:51:04.276Z,6.13
2023-08-22T01:53:30.920Z,5.50
2023-08-22T01:56:01.031Z,5.23
2023-08-22T01:58:27.643Z,5.33
2023-08-22T02:00:54.307Z,5.80
2023-08-22T02:03:24.778Z,5.67
2023-08-22T02:05:51.616Z,5.40
2023-08-22T02:08:18.237Z,4.93
2023-08-22T02:10:44.816Z,4.90
2023-08-22T02:13:11.364Z,4.87
2023-08-22T02:15:37.939Z,4.63
2023-08-22T02:18:05.662Z,5.90
2023-08-22T02:20:32.394Z,5.67
2023-08-22T02:22:59.664Z,6.03
2023-08-22T02:25:27.276Z,6.23
2023-08-22T02:27:53.828Z,6.40
2023-08-22T02:30:20.593Z,5.70
2023-08-22T02:32:48.995Z,5.97
2023-08-22T02:35:15.750Z,6.47
2023-08-22T02:37:43.130Z,5.27
2023-08-22T02:40:10.678Z,5.57
2023-08-22T02:42:37.625Z,5.47
2023-08-22T02:45:05.891Z,5.60
2023-08-22T02:47:32.741Z,6.10
2023-08-22T02:49:59.678Z,6.00
2023-08-22T02:52:26.271Z,6.40
2023-08-22T02:54:53.606Z,5.83
2023-08-22T02:57:20.287Z,6.00
2023-08-22T02:59:46.853Z,5.80
2023-08-22T03:02:13.430Z,5.13
2023-08-22T03:04:40.086Z,5.73
2023-08-22T03:07:06.820Z,5.77
2023-08-22T03:09:33.633Z,5.53
2023-08-22T03:12:00.151Z,5.87
2023-08-22T03:14:26.718Z,5.97
2023-08-22T03:16:53.685Z,5.90
2023-08-22T03:19:20.367Z,5.60
2023-08-22T03:21:46.953Z,5.50
2023-08-22T03:24:13.535Z,6.57
2023-08-22T03:26:40.153Z,5.50
2023-08-22T03:29:06.796Z,6.50
2023-08-22T03:31:33.489Z,5.53
2023-08-22T03:34:00.770Z,6.53
2023-08-22T03:36:27.368Z,6.53
2023-08-22T03:38:54.185Z,5.80
2023-08-22T03:41:20.693Z,5.60
2023-08-22T03:43:47.354Z,5.93
2023-08-22T03:46:21.682Z,6.20
2023-08-22T03:48:54.732Z,5.50
2023-08-22T03:51:21.426Z,6.27
2023-08-22T03:53:48.097Z,6.57
2023-08-22T03:56:14.770Z,6.20
2023-08-22T03:58:41.400Z,6.63
2023-08-22T04:01:08.053Z,6.00
2023-08-22T04:03:34.779Z,5.97
2023-08-22T04:06:01.389Z,5.97
2023-08-22T04:08:27.995Z,5.37
2023-08-22T04:10:54.607Z,6.00
2023-08-22T04:13:21.417Z,6.47
2023-08-22T04:15:48.349Z,6.37
2023-08-22T04:18:15.106Z,5.80
2023-08-22T04:20:44.307Z,5.80
2023-08-22T04:23:11.519Z,6.67
2023-08-22T04:25:38.457Z,5.60
2023-08-22T04:28:06.194Z,6.30
2023-08-22T04:30:33.352Z,6.67
2023-08-22T04:33:00.069Z,5.60
2023-08-22T04:35:26.811Z,6.37
2023-08-22T04:37:53.418Z,6.27
2023-08-22T04:40:20.149Z,6.23
2023-08-22T04:42:46.737Z,5.70
2023-08-22T04:45:13.467Z,6.57
2023-08-22T04:47:40.349Z,5.00
2023-08-22T04:50:07.950Z,5.60
2023-08-22T04:52:34.505Z,5.63
2023-08-22T04:55:01.450Z,5.53
2023-08-22T04:57:27.948Z,5.80
2023-08-22T04:59:55.182Z,5.63
2023-08-22T05:02:25.922Z,5.67
2023-08-22T05:04:52.713Z,5.20
2023-08-22T05:07:19.322Z,6.80
2023-08-22T05:09:45.923Z,5.97
2023-08-22T05:12:12.565Z,6.50
2023-08-22T05:14:40.895Z,6.20
2023-08-22T05:17:07.742Z,5.87
2023-08-22T05:19:34.448Z,6.17
2023-08-22T05:22:01.119Z,6.10
2023-08-22T05:24:27.907Z,5.77
2023-08-22T05:26:54.520Z,5.40
2023-08-22T05:29:21.777Z,5.73
2023-08-22T05:31:48.441Z,5.60
2023-08-22T05:34:15.667Z,6.10
2023-08-22T05:36:42.328Z,5.90
2023-08-22T05:39:08.941Z,5.47
2023-08-22T05:41:35.529Z,5.57
2023-08-22T05:44:02.154Z,5.50
2023-08-22T05:46:28.787Z,5.60
2023-08-22T05:48:56.491Z,6.40
2023-08-22T05:51:23.216Z,6.00
2023-08-22T05:53:49.934Z,5.37
2023-08-22T05:56:16.588Z,5.87
2023-08-22T05:58:43.182Z,5.53
2023-08-22T06:01:13.014Z,5.53
2023-08-22T06:03:40.299Z,6.67
2023-08-22T06:06:06.888Z,5.60
2023-08-22T06:08:33.478Z,6.37
2023-08-22T06:11:00.072Z,5.20
2023-08-22T06:13:26.625Z,5.20
2023-08-22T06:15:53.152Z,6.07
2023-08-22T06:18:19.737Z,5.70
2023-08-22T06:20:47.386Z,5.83
2023-08-22T06:23:14.060Z,6.47
2023-08-22T06:25:40.805Z,9.23
2023-08-22T06:28:07.876Z,8.23
2023-08-22T06:30:34.497Z,8.43
2023-08-22T06:33:01.161Z,12.37
2023-08-22T06:35:29.320Z,11.20
2023-08-22T06:37:55.977Z,8.43
2023-08-22T06:40:23.810Z,8.40
2023-08-22T06:42:50.694Z,6.47
2023-08-22T06:45:17.378Z,5.70
2023-08-22T06:47:44.358Z,5.93
2023-08-22T06:50:11.230Z,6.97
2023-08-22T06:52:38.125Z,6.23
2023-08-22T06:55:05.082Z,5.60
2023-08-22T06:57:33.314Z,6.30
2023-08-22T07:00:08.291Z,7.10
2023-08-22T07:02:34.983Z,6.33
2023-08-22T07:05:02.327Z,8.57
2023-08-22T07:07:28.977Z,8.30
2023-08-22T07:09:55.553Z,7.80
2023-08-22T07:12:22.243Z,8.80
2023-08-22T07:14:49.085Z,8.87
2023-08-22T07:17:15.651Z,8.20
2023-08-22T07:19:42.757Z,8.77
2023-08-22T07:22:09.595Z,9.50
2023-08-22T07:24:36.275Z,10.63
2023-08-22T07:27:03.143Z,11.07
2023-08-22T07:29:29.703Z,10.93
2023-08-22T07:31:59.405Z,9.77
2023-08-22T07:34:26.170Z,11.00
2023-08-22T07:36:53.603Z,8.60
2023-08-22T07:39:22.377Z,8.83
2023-08-22T07:41:49.055Z,9.07
2023-08-22T07:44:15.978Z,8.83
2023-08-22T07:46:43.073Z,8.93
2023-08-22T07:49:09.866Z,7.73
2023-08-22T07:51:37.561Z,7.80
2023-08-22T07:54:07.553Z,7.60
2023-08-22T07:56:37.253Z,7.37
2023-08-22T07:59:03.825Z,7.87
2023-08-22T08:01:30.322Z,7.23
2023-08-22T08:03:57.204Z,8.63
2023-08-22T08:06:23.846Z,7.10
2023-08-22T08:08:50.396Z,7.80
2023-08-22T08:11:16.904Z,7.17
2023-08-22T08:13:43.679Z,7.53
2023-08-22T08:16:10.550Z,6.50
2023-08-22T08:18:37.127Z,6.07
2023-08-22T08:21:03.928Z,5.83
2023-08-22T08:23:31.384Z,5.90
2023-08-22T08:25:57.964Z,4.83
2023-08-22T08:28:25.240Z,5.30
2023-08-22T08:30:51.990Z,5.10
2023-08-22T08:33:18.561Z,5.60
2023-08-22T08:35:45.128Z,5.20
2023-08-22T08:38:11.797Z,6.20
2023-08-22T08:40:39.068Z,5.00
2023-08-22T08:43:05.652Z,5.00
2023-08-22T08:45:32.294Z,5.30
2023-08-22T08:48:02.229Z,5.43
2023-08-22T08:50:28.973Z,5.77
2023-08-22T08:52:55.679Z,4.60
2023-08-22T08:55:22.275Z,4.87
2023-08-22T08:57:49.242Z,4.83
2023-08-22T09:00:16.564Z,9.40
2023-08-22T09:02:45.299Z,5.70
2023-08-22T09:05:12.864Z,4.40
2023-08-22T09:07:39.845Z,4.87
2023-08-22T09:10:07.495Z,5.60
2023-08-22T09:12:35.969Z,4.50
2023-08-22T09:15:02.775Z,5.90
2023-08-22T09:17:32.540Z,4.93
2023-08-22T09:19:59.254Z,5.80
2023-08-22T09:22:32.151Z,4.77
2023-08-22T09:24:59.029Z,4.17
2023-08-22T09:27:29.255Z,5.60
2023-08-22T09:30:02.219Z,5.63
2023-08-22T09:32:28.874Z,4.70
2023-08-22T09:34:57.755Z,4.00
2023-08-22T09:37:32.242Z,3.90
2023-08-22T09:39:59.041Z,3.70
2023-08-22T09:42:29.232Z,4.57
2023-08-22T09:44:59.552Z,5.30
2023-08-22T09:47:30.026Z,4.20
2023-08-22T09:50:01.474Z,4.53
2023-08-22T09:52:27.977Z,4.73
2023-08-22T09:54:56.257Z,6.30
2023-08-22T09:57:26.216Z,6.00
2023-08-22T09:59:52.833Z,5.70
2023-08-22T10:02:22.787Z,5.37
2023-08-22T10:04:49.594Z,6.87
2023-08-22T10:07:16.239Z,5.63
2023-08-22T10:09:43.315Z,7.33
2023-08-22T10:12:12.626Z,7.80
2023-08-22T10:14:51.605Z,7.03
2023-08-22T10:17:18.275Z,7.20
2023-08-22T10:19:45.485Z,5.87
2023-08-22T10:22:14.531Z,6.03
2023-08-22T10:24:42.379Z,7.23
2023-08-22T10:27:13.809Z,6.13
2023-08-22T10:29:46.303Z,5.60
2023-08-22T10:32:12.926Z,6.50
2023-08-22T10:34:39.633Z,6.60
2023-08-22T10:37:17.527Z,6.00
2023-08-22T10:39:48.513Z,6.30
2023-08-22T10:42:15.057Z,7.30
2023-08-22T10:44:42.622Z,6.70
2023-08-22T10:47:28.786Z,6.70
2023-08-22T10:52:27.380Z,6.03
2023-08-22T10:55:01.628Z,5.30
2023-08-22T10:57:31.003Z,4.97
2023-08-22T11:00:01.207Z,4.47
2023-08-22T11:02:32.858Z,4.90
2023-08-22T11:05:00.604Z,5.20
2023-08-22T11:07:27.979Z,5.40
2023-08-22T11:09:54.840Z,4.70
2023-08-22T11:12:23.049Z,4.47
2023-08-22T11:14:51.516Z,4.77
2023-08-22T11:17:20.100Z,5.07
2023-08-22T11:19:47.939Z,5.33
2023-08-22T11:22:15.150Z,5.43
2023-08-22T11:24:46.203Z,5.20
2023-08-22T11:27:16.780Z,5.13
2023-08-22T11:29:51.244Z,4.93
2023-08-22T11:32:30.045Z,4.77
2023-08-22T11:35:02.947Z,4.40
2023-08-22T11:37:31.871Z,5.17
2023-08-22T11:40:02.026Z,4.17
2023-08-22T11:42:34.361Z,4.90
2023-08-22T11:45:11.079Z,4.03
2023-08-22T11:47:44.420Z,4.40
2023-08-22T11:50:24.782Z,3.90
2023-08-22T11:53:09.872Z,5.47
2023-08-22T11:55:39.791Z,4.67
2023-08-22T11:58:06.627Z,4.10
2023-08-22T12:00:35.763Z,5.77
2023-08-22T12:03:06.697Z,4.63
2023-08-22T12:05:41.322Z,4.20
2023-08-22T12:08:07.860Z,4.50
2023-08-22T12:10:55.313Z,7.20
2023-08-22T12:13:23.363Z,5.00
2023-08-22T12:15:51.248Z,4.23
2023-08-22T12:18:18.435Z,6.10
2023-08-22T12:20:46.968Z,4.83
2023-08-22T12:23:14.377Z,4.90
2023-08-22T12:25:42.958Z,5.70
2023-08-22T12:28:10.988Z,5.67
2023-08-22T12:30:39.081Z,5.50
2023-08-22T12:33:07.902Z,6.20
2023-08-22T12:35:36.003Z,5.00
2023-08-22T12:38:03.829Z,5.37
2023-08-22T12:40:30.459Z,5.53
2023-08-22T12:42:59.281Z,5.10
2023-08-22T12:45:26.461Z,5.97
2023-08-22T12:47:53.279Z,5.70
2023-08-22T12:50:20.063Z,7.10
2023-08-22T12:52:46.798Z,6.13
2023-08-22T12:55:13.821Z,5.00
2023-08-22T12:57:41.188Z,4.90
2023-08-22T13:00:11.387Z,6.00
2023-08-22T13:02:40.378Z,5.70
2023-08-22T13:05:07.762Z,5.10
2023-08-22T13:07:34.654Z,5.40
2023-08-22T13:10:01.256Z,4.60
2023-08-22T13:12:28.686Z,4.90
2023-08-22T13:14:55.313Z,4.70
2023-08-22T13:17:21.917Z,4.90
2023-08-22T13:19:48.647Z,4.60
2023-08-22T13:22:15.590Z,3.90
2023-08-22T13:24:42.478Z,5.10
2023-08-22T13:27:09.086Z,4.70
2023-08-22T13:29:35.700Z,4.30
2023-08-22T13:32:02.446Z,4.27
2023-08-22T13:34:29.333Z,5.00
2023-08-22T13:36:55.961Z,5.07
2023-08-22T13:39:22.827Z,4.10
2023-08-22T13:41:49.714Z,4.80
2023-08-22T13:44:16.288Z,4.73
2023-08-22T13:46:43.273Z,4.80
2023-08-22T13:49:10.073Z,5.00
2023-08-22T13:51:36.736Z,5.13
2023-08-22T13:54:04.329Z,5.20
2023-08-22T13:56:32.011Z,5.30
2023-08-22T13:58:59.262Z,4.63
2023-08-22T14:01:27.472Z,5.67
2023-08-22T14:03:54.486Z,5.10
2023-08-22T14:06:21.102Z,5.60
2023-08-22T14:08:50.924Z,4.70
2023-08-22T14:11:17.467Z,4.90
2023-08-22T14:13:44.691Z,4.87
2023-08-22T14:16:11.618Z,4.60
2023-08-22T14:18:38.742Z,4.23
2023-08-22T14:21:05.421Z,4.40
2023-08-22T14:23:32.049Z,3.47
2023-08-22T14:25:58.664Z,3.93
2023-08-22T14:28:25.463Z,4.90
2023-08-22T14:31:01.303Z,4.00
2023-08-22T14:33:28.136Z,4.00
2023-08-22T14:35:54.814Z,4.20
2023-08-22T14:38:21.385Z,4.17
2023-08-22T14:40:58.155Z,3.80
2023-08-22T14:43:27.654Z,3.30
2023-08-22T14:45:54.657Z,4.10
2023-08-22T14:48:21.520Z,3.70
2023-08-22T14:50:48.561Z,3.73
2023-08-22T14:53:17.285Z,3.60
2023-08-22T14:56:03.798Z,4.67
2023-08-22T14:58:44.284Z,4.77
2023-08-22T15:01:11.949Z,4.40
2023-08-22T15:03:39.938Z,3.10
2023-08-22T15:06:06.809Z,3.20
2023-08-22T15:08:33.665Z,3.83
2023-08-22T15:11:00.698Z,3.23
2023-08-22T15:13:29.486Z,3.57
2023-08-22T15:15:59.520Z,3.17
2023-08-22T15:18:26.629Z,3.07
2023-08-22T15:20:54.772Z,3.53
2023-08-22T15:23:22.542Z,3.20
2023-08-22T15:25:51.508Z,3.10
2023-08-22T15:28:18.490Z,3.10
2023-08-22T15:30:45.369Z,2.60
2023-08-22T15:33:12.421Z,2.87
2023-08-22T15:35:46.233Z,3.43
2023-08-22T15:38:13.324Z,3.30
2023-08-22T15:40:50.363Z,3.13
2023-08-22T15:43:18.756Z,4.10
2023-08-22T15:45:47.026Z,3.33
2023-08-22T15:48:13.933Z,4.30
2023-08-22T15:50:41.100Z,3.30
2023-08-22T15:53:07.663Z,3.43
2023-08-22T15:55:34.314Z,3.53
2023-08-22T15:58:01.905Z,3.60
2023-08-22T16:00:29.392Z,3.33
2023-08-22T16:02:58.890Z,3.90
2023-08-22T16:05:25.972Z,3.80
2023-08-22T16:07:52.508Z,4.20
2023-08-22T16:10:19.140Z,4.03
2023-08-22T16:12:45.699Z,3.80
2023-08-22T16:15:12.271Z,4.23
2023-08-22T16:17:38.982Z,4.33
2023-08-22T16:20:06.400Z,4.40
2023-08-22T16:22:33.068Z,3.90
2023-08-22T16:24:59.604Z,3.90
2023-08-22T16:27:35.891Z,4.83
2023-08-22T16:30:03.582Z,4.20
2023-08-22T16:32:30.334Z,3.90
2023-08-22T16:34:56.875Z,5.07
2023-08-22T16:37:23.391Z,4.20
2023-08-22T16:39:50.156Z,3.70
2023-08-22T16:42:16.716Z,5.60
2023-08-22T16:44:43.284Z,3.53
2023-08-22T16:47:10.706Z,5.43
2023-08-22T16:49:37.312Z,4.80
2023-08-22T16:52:05.004Z,4.60
2023-08-22T16:54:31.609Z,5.50
2023-08-22T16:56:58.694Z,5.37
2023-08-22T16:59:25.288Z,5.63
2023-08-22T17:01:51.822Z,5.20
2023-08-22T17:04:18.499Z,5.90
2023-08-22T17:06:45.125Z,5.37
2023-08-22T17:09:11.794Z,4.73
2023-08-22T17:11:38.438Z,4.40
2023-08-22T17:14:05.927Z,4.87
2023-08-22T17:16:33.102Z,4.37
2023-08-22T17:18:59.887Z,5.33
2023-08-22T17:21:26.497Z,4.50
2023-08-22T17:23:53.656Z,4.37
2023-08-22T17:26:20.479Z,4.20
2023-08-22T17:28:47.047Z,4.90
2023-08-22T17:31:14.232Z,4.33
2023-08-22T17:33:43.435Z,3.20
2023-08-22T17:36:12.030Z,3.60
2023-08-22T17:38:40.188Z,3.90
2023-08-22T17:41:09.460Z,4.40
2023-08-22T17:43:39.848Z,4.03
2023-08-22T17:46:06.695Z,4.03
2023-08-22T17:48:33.564Z,3.40
2023-08-22T17:51:01.219Z,3.57
2023-08-22T17:53:28.378Z,3.63
2023-08-22T17:55:55.302Z,4.60
2023-08-22T17:58:22.914Z,5.20
2023-08-22T18:00:51.260Z,4.60
2023-08-22T18:03:18.333Z,4.10
2023-08-22T18:05:59.009Z,4.67
2023-08-22T18:08:25.796Z,4.67
2023-08-22T18:10:53.319Z,4.40
2023-08-22T18:13:20.606Z,4.67
2023-08-22T18:16:02.654Z,5.00
2023-08-22T18:18:33.910Z,5.37
2023-08-22T18:21:04.512Z,4.37
2023-08-22T18:23:31.645Z,4.03
2023-08-22T18:26:03.009Z,4.40
2023-08-22T18:28:32.309Z,5.33
2023-08-22T18:31:01.677Z,4.80
2023-08-22T18:33:28.410Z,4.33
2023-08-22T18:35:55.014Z,4.17
2023-08-22T18:38:22.578Z,4.27
2023-08-22T18:40:53.356Z,4.40
2023-08-22T18:43:19.936Z,4.77
2023-08-22T18:45:47.124Z,4.33
2023-08-22T18:48:14.196Z,4.50
2023-08-22T18:50:41.085Z,5.30
2023-08-22T18:53:07.763Z,4.80
2023-08-22T18:55:35.196Z,4.47
2023-08-22T18:58:02.300Z,4.30
2023-08-22T19:00:28.910Z,4.40
2023-08-22T19:02:57.836Z,4.37
2023-08-22T19:05:24.829Z,3.93
2023-08-22T19:07:52.840Z,5.20
2023-08-22T19:10:19.993Z,4.23
2023-08-22T19:12:46.709Z,4.93
2023-08-22T19:15:13.458Z,5.63
2023-08-22T19:17:40.119Z,4.57
2023-08-22T19:20:07.174Z,5.20
2023-08-22T19:22:33.895Z,7.80
2023-08-22T19:25:00.514Z,4.60
2023-08-22T19:27:27.109Z,4.70
2023-08-22T19:29:54.021Z,4.37
2023-08-22T19:32:31.652Z,4.90
2023-08-22T19:35:03.404Z,4.63
2023-08-22T19:37:30.522Z,5.00
2023-08-22T19:39:57.061Z,5.00
2023-08-22T19:42:23.764Z,4.63
2023-08-22T19:44:57.013Z,4.70
2023-08-22T19:47:23.790Z,4.20
2023-08-22T19:49:51.163Z,6.00
2023-08-22T19:52:18.197Z,4.90
2023-08-22T19:54:44.925Z,5.00
2023-08-22T19:57:11.546Z,4.73
2023-08-22T19:59:38.368Z,5.67
2023-08-22T20:02:05.939Z,5.13
2023-08-22T20:04:32.894Z,5.20
2023-08-22T20:06:59.470Z,5.30
2023-08-22T20:09:26.320Z,6.10
2023-08-22T20:11:53.028Z,6.43
2023-08-22T20:14:19.803Z,6.30
2023-08-22T20:16:46.597Z,6.20
2023-08-22T20:19:13.919Z,6.97
2023-08-22T20:21:40.500Z,8.87
2023-08-22T20:24:07.069Z,6.90
2023-08-22T20:26:41.095Z,6.57
2023-08-22T20:29:09.257Z,6.20
2023-08-22T20:31:38.240Z,6.10
2023-08-22T20:34:05.154Z,5.80
2023-08-22T20:36:31.871Z,5.93
2023-08-22T20:39:00.630Z,7.10
2023-08-22T20:41:29.791Z,5.93
2023-08-22T20:43:57.790Z,6.93
2023-08-22T20:46:24.575Z,6.83
2023-08-22T20:48:52.482Z,6.70
2023-08-22T20:51:18.992Z,6.73
2023-08-22T20:53:45.575Z,7.07
2023-08-22T20:56:12.188Z,6.60
2023-08-22T20:58:38.955Z,7.93
2023-08-22T21:01:05.578Z,6.80
2023-08-22T21:03:32.365Z,7.47
2023-08-22T21:05:59.220Z,8.20
2023-08-22T21:08:26.388Z,8.90
2023-08-22T21:10:53.163Z,7.50
2023-08-22T21:13:19.719Z,7.77
2023-08-22T21:15:46.271Z,7.77
2023-08-22T21:18:13.157Z,8.60
2023-08-22T21:20:39.812Z,8.10
2023-08-22T21:23:10.010Z,7.73
2023-08-22T21:25:37.256Z,7.77
2023-08-22T21:28:04.260Z,7.87
2023-08-22T21:30:30.936Z,8.27
2023-08-22T21:32:57.575Z,8.37
2023-08-22T21:35:24.205Z,8.00
2023-08-22T21:37:50.790Z,8.33
2023-08-22T21:40:17.635Z,8.67
2023-08-22T21:42:44.678Z,8.10
2023-08-22T21:45:12.948Z,8.47
2023-08-22T21:47:40.755Z,8.67
2023-08-22T21:50:08.127Z,9.07
2023-08-22T21:52:35.732Z,10.20
2023-08-22T21:55:02.569Z,9.17
2023-08-22T21:57:29.213Z,8.33
2023-08-22T21:59:55.731Z,9.20
2023-08-22T22:02:22.383Z,9.13
2023-08-22T22:04:48.944Z,9.60
2023-08-22T22:07:17.750Z,9.67
2023-08-22T22:09:44.480Z,10.27
2023-08-22T22:12:11.077Z,9.23
2023-08-22T22:14:38.425Z,9.30
2023-08-22T22:17:06.267Z,9.57
2023-08-22T22:19:33.014Z,9.57
2023-08-22T22:21:59.698Z,9.30
2023-08-22T22:24:26.329Z,8.60
2023-08-22T22:26:53.287Z,9.07
2023-08-22T22:29:20.681Z,9.60
2023-08-22T22:31:47.224Z,9.27
2023-08-22T22:34:13.856Z,10.43
2023-08-22T22:36:40.688Z,10.00
2023-08-22T22:39:07.289Z,9.70
2023-08-22T22:41:34.034Z,10.83
2023-08-22T22:44:00.614Z,9.73
2023-08-22T22:46:27.484Z,9.57
2023-08-22T22:48:54.291Z,9.63
2023-08-22T22:51:20.899Z,11.37
2023-08-22T22:53:47.438Z,11.23
2023-08-22T22:56:14.086Z,9.80
2023-08-22T22:58:40.802Z,11.57
2023-08-22T23:01:09.228Z,10.53
2023-08-22T23:03:35.953Z,10.10
2023-08-22T23:06:09.810Z,9.60
2023-08-22T23:08:36.899Z,10.20
2023-08-22T23:11:05.064Z,9.30
2023-08-22T23:13:35.466Z,9.37
2023-08-22T23:16:02.158Z,9.83
2023-08-22T23:18:28.727Z,9.03
2023-08-22T23:20:55.353Z,8.37
2023-08-22T23:23:21.892Z,9.93
2023-08-22T23:25:52.214Z,10.67
2023-08-22T23:28:18.883Z,10.77
2023-08-22T23:30:45.527Z,10.23
2023-08-22T23:33:12.321Z,10.07
2023-08-22T23:35:39.082Z,9.30
2023-08-22T23:38:05.751Z,10.80
2023-08-22T23:40:32.340Z,10.90
2023-08-22T23:42:58.957Z,11.40
2023-08-22T23:45:26.295Z,11.27
2023-08-22T23:47:53.333Z,11.40
2023-08-22T23:50:20.039Z,11.90
2023-08-22T23:52:46.801Z,10.80
2023-08-22T23:55:13.539Z,12.17
2023-08-22T23:57:40.447Z,10.87
